Quinsam — VY6800 — position and weather

sailwx.info

Track history (hours):
 
Tides and Currents Weather Stations Pressure Air Temp Water Temp Dewpoint Dewpoint Depression Visibility Wind Speed Wind Dir Waves Ship Positions

Quinsam

Last reported at 2017-Apr-26 22:48 UTC. Time now 2017-Apr-28 20:01 UTC.
Position N 49°10' W 123°56'.

Length 88 m; draft 1.5 m.

Type: Ship. MMSI: 316001266.

Date/timePositionNaut miles runAvg speedWind from/ knotsBaromVisibWave heightAir tempDewpointWater temp
2017-Apr-26 22:48N 49°10' W 123°56'0 0.0
2017-Apr-26 21:09N 49°10' W 123°56'0 0.0
2017-Apr-26 20:00N 49°10' W 123°56'0 0.0
2017-Apr-26 17:45N 49°10' W 123°56'0 0.3
2017-Apr-26 16:33N 49°10' W 123°55'0 0.1
2017-Apr-26 15:17N 49°10' W 123°55'1 0.1
2017-Apr-26 04:45N 49°10' W 123°53'0 0.4
2017-Apr-26 04:20N 49°11' W 123°53'2 2.9
2017-Apr-26 03:48N 49°10' W 123°56'0 0.0
2017-Apr-25 22:27N 49°10' W 123°56'0 0.0
2017-Apr-25 18:36N 49°10' W 123°56'0 0.1
2017-Apr-25 17:42N 49°10' W 123°56'2 1.7
2017-Apr-25 16:39N 49°11' W 123°53'211.1
2017-Apr-25 16:30N 49°10' W 123°56'2 1.7
2017-Apr-25 15:25N 49°11' W 123°53'2 2.7
2017-Apr-25 14:50N 49°10' W 123°55'3 0.1
2017-Apr-24 14:28N 49°11' W 123°52'3 2.8
2017-Apr-24 13:30N 49°10' W 123°56'3 0.6
2017-Apr-24 09:17N 49°11' W 123°52'0 0.0
2017-Apr-24 06:20N 49°11' W 123°52'3 8.4
2017-Apr-24 06:00N 49°10' W 123°56'3 4.9
2017-Apr-24 05:25N 49°11' W 123°52'3 6.9
2017-Apr-24 05:00N 49°10' W 123°56'3 4.9
2017-Apr-24 04:25N 49°11' W 123°52'3 7.0
2017-Apr-24 04:00N 49°10' W 123°56'3 5.3
2017-Apr-24 03:27N 49°11' W 123°52'0 0.0
2017-Apr-24 02:41N 49°11' W 123°52'1 3.7
2017-Apr-24 02:27N 49°11' W 123°53'2 4.4
2017-Apr-24 02:00N 49°10' W 123°56'3 5.5
2017-Apr-24 01:30N 49°11' W 123°52'3 5.3
2017-Apr-24 00:58N 49°10' W 123°56'3 5.7
2017-Apr-24 00:27N 49°11' W 123°52'3 6.3
2017-Apr-24 00:00N 49°10' W 123°56'2 3.6
2017-Apr-23 23:29N 49°11' W 123°53'0 0.3
2017-Apr-23 23:01N 49°11' W 123°53'2 3.7
2017-Apr-23 22:28N 49°10' W 123°56'3 6.0
2017-Apr-23 21:59N 49°11' W 123°52'0 0.0
2017-Apr-23 21:30N 49°11' W 123°52'0 0.0
2017-Apr-23 20:55N 49°11' W 123°52'0 0.1
2017-Apr-23 20:30N 49°11' W 123°52'3 5.5
2017-Apr-23 19:59N 49°10' W 123°56'3 5.0
2017-Apr-23 19:24N 49°11' W 123°52'3 6.7
2017-Apr-23 19:00N 49°10' W 123°56'1 2.7
2017-Apr-23 18:30N 49°10' W 123°54'1 1.3
2017-Apr-23 17:58N 49°11' W 123°53'2 4.6
2017-Apr-23 17:29N 49°10' W 123°56'3 4.2
2017-Apr-23 16:48N 49°11' W 123°52'2 7.4
2017-Apr-23 16:30N 49°10' W 123°55'1 1.4
2017-Apr-23 16:00N 49°10' W 123°54'1 2.8
2017-Apr-23 15:29N 49°11' W 123°52'3 5.9
2017-Apr-23 15:00N 49°10' W 123°56'0 0.0
2017-Apr-23 13:59N 49°10' W 123°56'1 1.5
2017-Apr-23 13:30N 49°10' W 123°55'2 4.2
2017-Apr-23 12:59N 49°11' W 123°52'0 0.0
2017-Apr-23 12:26N 49°11' W 123°52'0 0.0
2017-Apr-23 09:38N 49°11' W 123°52'0 0.0
2017-Apr-23 08:26N 49°11' W 123°52'0 0.0
2017-Apr-23 07:56N 49°11' W 123°52'0 0.0
2017-Apr-23 07:26N 49°11' W 123°52'0 0.0
2017-Apr-23 06:50N 49°11' W 123°52'0 0.0
2017-Apr-23 06:25N 49°11' W 123°52'3 7.0
2017-Apr-23 06:00N 49°10' W 123°56'3 5.1
2017-Apr-23 05:26N 49°11' W 123°52'3 6.7
2017-Apr-23 05:00N 49°10' W 123°56'3 4.8
2017-Apr-23 04:24N 49°11' W 123°52'3 7.2
2017-Apr-23 04:00N 49°10' W 123°56'3 5.5
2017-Apr-23 03:29N 49°11' W 123°52'0 0.2
2017-Apr-23 02:57N 49°11' W 123°52'0 1.0
2017-Apr-23 02:31N 49°11' W 123°52'2 4.8
2017-Apr-23 02:00N 49°10' W 123°56'3 5.5
2017-Apr-23 01:30N 49°11' W 123°52'3 5.7
2017-Apr-23 01:00N 49°10' W 123°56'3 5.4
2017-Apr-23 00:28N 49°11' W 123°52'3 6.2
2017-Apr-23 00:00N 49°10' W 123°56'2 3.5
2017-Apr-22 23:30N 49°10' W 123°53'0 0.4
2017-Apr-22 23:00N 49°11' W 123°53'2 3.6
2017-Apr-22 22:28N 49°10' W 123°56'3 4.2
2017-Apr-22 21:46N 49°11' W 123°52'0 0.0
2017-Apr-22 21:28N 49°11' W 123°52'0 0.0
2017-Apr-22 20:59N 49°11' W 123°52'1 1.2
2017-Apr-22 20:29N 49°11' W 123°53'2 4.4
2017-Apr-22 19:58N 49°10' W 123°56'3 4.1
2017-Apr-22 19:16N 49°11' W 123°52'2 8.6
2017-Apr-22 19:00N 49°10' W 123°55'1 2.1
2017-Apr-22 18:29N 49°10' W 123°53'1 2.5
2017-Apr-22 18:00N 49°11' W 123°52'3 5.6
2017-Apr-22 17:30N 49°10' W 123°56'3 5.1
2017-Apr-22 16:56N 49°11' W 123°52'3 6.7
2017-Apr-22 16:30N 49°10' W 123°56'3 5.6
2017-Apr-22 16:00N 49°11' W 123°52'1 1.7
2017-Apr-22 15:30N 49°11' W 123°53'2 3.9
2017-Apr-22 15:00N 49°10' W 123°56'3 4.4
2017-Apr-22 14:20N 49°11' W 123°52'3 3.1
2017-Apr-22 13:30N 49°10' W 123°55'3 1.8
2017-Apr-22 12:01N 49°11' W 123°52'0 0.0
2017-Apr-22 10:25N 49°11' W 123°52'0 0.0
2017-Apr-22 08:25N 49°11' W 123°52'0 0.0
2017-Apr-22 07:49N 49°11' W 123°52'0 0.0
2017-Apr-22 07:22N 49°11' W 123°52'0 0.0
2017-Apr-22 06:58N 49°11' W 123°52'0 0.0
2017-Apr-22 06:28N 49°11' W 123°52'3 6.2
2017-Apr-22 06:00N 49°10' W 123°56'3 5.5
2017-Apr-22 05:28N 49°11' W 123°52'3 5.8
2017-Apr-22 04:58N 49°10' W 123°56'3 3.8
2017-Apr-22 04:18N 49°11' W 123°52'3 8.2
2017-Apr-22 03:59N 49°10' W 123°56'2 5.0
2017-Apr-22 03:30N 49°11' W 123°52'1 0.9
2017-Apr-22 02:57N 49°11' W 123°52'2 3.4
2017-Apr-22 02:30N 49°10' W 123°54'0 0.2
2017-Apr-22 01:59N 49°10' W 123°54'1 1.3
2017-Apr-22 01:29N 49°11' W 123°53'2 4.3
2017-Apr-22 01:00N 49°10' W 123°56'3 4.8
2017-Apr-22 00:24N 49°11' W 123°52'3 7.2
2017-Apr-22 00:00N 49°10' W 123°56'2 3.5
2017-Apr-21 23:30N 49°10' W 123°53'1 1.5
2017-Apr-21 23:00N 49°11' W 123°52'2 4.3
2017-Apr-21 22:25N 49°10' W 123°56'3 6.5
2017-Apr-21 21:58N 49°11' W 123°52'2 4.6
2017-Apr-21 21:30N 49°10' W 123°55'0 0.9
2017-Apr-21 20:59N 49°10' W 123°54'2 3.5
2017-Apr-21 20:30N 49°11' W 123°52'3 4.8
2017-Apr-21 19:54N 49°10' W 123°56'3 4.5
2017-Apr-21 19:16N 49°11' W 123°52'2 8.8
2017-Apr-21 19:00N 49°10' W 123°55'0 0.7
2017-Apr-21 18:30N 49°10' W 123°54'2 3.8
2017-Apr-21 18:00N 49°11' W 123°52'3 5.8
2017-Apr-21 17:30N 49°10' W 123°56'3 4.0
2017-Apr-21 16:46N 49°11' W 123°52'2 9.0
2017-Apr-21 16:30N 49°10' W 123°55'1 1.7
2017-Apr-21 16:00N 49°10' W 123°54'1 2.4
2017-Apr-21 15:28N 49°11' W 123°52'3 5.3
2017-Apr-21 14:59N 49°10' W 123°56'3 3.6
2017-Apr-21 14:13N 49°11' W 123°52'2 2.5
2017-Apr-21 13:30N 49°10' W 123°54'2 0.3
2017-Apr-21 06:25N 49°11' W 123°52'3 6.8
2017-Apr-21 06:00N 49°10' W 123°56'3 5.5
2017-Apr-21 05:30N 49°11' W 123°52'3 5.3
2017-Apr-21 05:00N 49°10' W 123°56'3 5.8
2017-Apr-21 04:31N 49°11' W 123°52'3 5.7
2017-Apr-21 04:00N 49°10' W 123°56'3 5.1
2017-Apr-21 03:30N 49°11' W 123°52'0 0.7
2017-Apr-21 02:59N 49°11' W 123°52'3 6.0
2017-Apr-21 02:30N 49°10' W 123°56'3 4.5
2017-Apr-21 01:51N 49°11' W 123°52'3 8.3
2017-Apr-21 01:30N 49°10' W 123°56'3 5.2
2017-Apr-21 01:00N 49°11' W 123°52'2 4.3
2017-Apr-21 00:30N 49°10' W 123°55'1 1.0
2017-Apr-20 23:59N 49°10' W 123°54'1 2.0
2017-Apr-20 23:26N 49°11' W 123°53'2 4.9
2017-Apr-20 23:00N 49°10' W 123°56'3 4.3
2017-Apr-20 22:20N 49°11' W 123°52'2 6.9
2017-Apr-20 22:00N 49°10' W 123°55'0 0.2
2017-Apr-20 21:29N 49°10' W 123°55'2 4.2
2017-Apr-20 20:56N 49°11' W 123°52'3 6.9
2017-Apr-20 20:30N 49°10' W 123°56'2 3.6
2017-Apr-20 20:00N 49°10' W 123°53'0 0.7
2017-Apr-20 19:30N 49°11' W 123°53'2 4.3
2017-Apr-20 19:00N 49°10' W 123°56'3 5.5
2017-Apr-20 18:29N 49°11' W 123°52'2 4.3
2017-Apr-20 18:00N 49°10' W 123°55'1 1.0
2017-Apr-20 17:30N 49°10' W 123°55'3 4.9
2017-Apr-20 16:59N 49°11' W 123°52'3 5.7
2017-Apr-20 16:29N 49°10' W 123°56'3 5.5
2017-Apr-20 16:00N 49°11' W 123°52'1 2.2
2017-Apr-20 15:29N 49°10' W 123°54'2 3.1
2017-Apr-20 15:00N 49°10' W 123°56'3 4.3
2017-Apr-20 14:19N 49°11' W 123°52'2 2.1
2017-Apr-20 13:30N 49°10' W 123°54'2 2.9
2017-Apr-20 12:55N 49°11' W 123°52'0 0.0
2017-Apr-20 06:16N 49°11' W 123°52'310.4
2017-Apr-20 06:00N 49°10' W 123°56'0 0.2
2017-Apr-20 05:30N 49°10' W 123°56'0 0.0
2017-Apr-20 05:00N 49°10' W 123°56'3 5.3
2017-Apr-20 04:27N 49°11' W 123°52'3 6.5
2017-Apr-20 04:00N 49°10' W 123°56'2 4.2
2017-Apr-20 03:30N 49°11' W 123°53'1 1.3
2017-Apr-20 02:54N 49°11' W 123°52'1 1.3
2017-Apr-20 02:29N 49°11' W 123°52'2 5.0
2017-Apr-20 02:00N 49°10' W 123°56'3 5.8
2017-Apr-20 01:30N 49°11' W 123°52'3 5.8
2017-Apr-20 01:00N 49°10' W 123°56'3 4.7
2017-Apr-20 00:23N 49°11' W 123°52'3 7.3
2017-Apr-19 23:59N 49°10' W 123°56'2 3.9
2017-Apr-19 23:30N 49°11' W 123°53'0 0.8
2017-Apr-19 23:00N 49°11' W 123°53'2 4.6
2017-Apr-19 22:30N 49°10' W 123°56'3 5.3
2017-Apr-19 21:57N 49°11' W 123°52'3 5.5
2017-Apr-19 21:30N 49°10' W 123°55'1 2.2
2017-Apr-19 21:00N 49°10' W 123°54'0 0.5
2017-Apr-19 20:30N 49°11' W 123°53'2 3.3
2017-Apr-19 20:00N 49°10' W 123°56'3 4.9
2017-Apr-19 19:25N 49°11' W 123°52'3 7.0
2017-Apr-19 19:00N 49°10' W 123°56'1 2.6
2017-Apr-19 18:30N 49°10' W 123°54'2 3.1
2017-Apr-19 18:00N 49°11' W 123°52'3 5.6
2017-Apr-19 17:29N 49°10' W 123°56'3 5.8
2017-Apr-19 16:59N 49°11' W 123°52'3 5.6
2017-Apr-19 16:30N 49°10' W 123°56'1 2.9
2017-Apr-19 16:00N 49°10' W 123°53'1 1.8
2017-Apr-19 15:29N 49°11' W 123°52'3 5.4
2017-Apr-19 15:00N 49°10' W 123°56'3 5.8
2017-Apr-19 14:30N 49°11' W 123°52'2 1.8
2017-Apr-19 13:30N 49°10' W 123°54'2 3.6
2017-Apr-19 13:00N 49°11' W 123°52'0 0.0
2017-Apr-19 06:26N 49°11' W 123°52'3 6.6
2017-Apr-19 06:00N 49°10' W 123°56'3 5.5
2017-Apr-19 05:30N 49°11' W 123°52'3 5.6
2017-Apr-19 05:00N 49°10' W 123°56'3 5.6
2017-Apr-19 04:30N 49°11' W 123°52'3 5.5
2017-Apr-19 04:00N 49°10' W 123°56'2 4.3
2017-Apr-19 03:30N 49°11' W 123°53'1 1.5
2017-Apr-19 03:00N 49°11' W 123°52'1 1.5
2017-Apr-19 02:30N 49°11' W 123°53'2 4.0
2017-Apr-19 02:00N 49°10' W 123°56'3 5.3
2017-Apr-19 01:30N 49°11' W 123°52'3 5.6
2017-Apr-19 01:00N 49°10' W 123°56'3 4.7
2017-Apr-19 00:23N 49°11' W 123°52'3 7.6
2017-Apr-19 00:01N 49°10' W 123°56'2 3.1
2017-Apr-18 23:30N 49°10' W 123°54'1 1.2
2017-Apr-18 23:00N 49°11' W 123°53'2 4.4
2017-Apr-18 22:30N 49°10' W 123°56'3 4.9
2017-Apr-18 21:55N 49°11' W 123°52'3 7.0
2017-Apr-18 21:30N 49°10' W 123°56'3 5.6
2017-Apr-18 21:00N 49°11' W 123°52'1 2.0
2017-Apr-18 20:30N 49°11' W 123°53'2 3.6
2017-Apr-18 20:01N 49°10' W 123°56'3 5.7
2017-Apr-18 19:30N 49°11' W 123°52'3 5.7
2017-Apr-18 19:00N 49°10' W 123°56'2 4.1
2017-Apr-18 18:30N 49°11' W 123°53'0 0.4
2017-Apr-18 18:00N 49°11' W 123°53'2 4.5
2017-Apr-18 17:30N 49°10' W 123°56'3 5.1
2017-Apr-18 16:56N 49°11' W 123°52'3 6.7
2017-Apr-18 16:30N 49°10' W 123°56'1 2.9
2017-Apr-18 16:00N 49°10' W 123°54'1 2.6
2017-Apr-18 15:29N 49°11' W 123°52'3 5.8
2017-Apr-18 15:00N 49°10' W 123°56'3 5.6
2017-Apr-18 14:29N 49°11' W 123°52'2 1.9
2017-Apr-18 13:30N 49°10' W 123°54'2 3.7
2017-Apr-18 13:00N 49°11' W 123°52'0 0.0
2017-Apr-18 12:18N 49°11' W 123°52'0 0.0
2017-Apr-18 11:54N 49°11' W 123°52'0 0.0
2017-Apr-18 11:24N 49°11' W 123°52'0 0.0
2017-Apr-18 10:54N 49°11' W 123°52'0 0.0
2017-Apr-18 10:30N 49°11' W 123°52'0 0.0
2017-Apr-18 09:54N 49°11' W 123°52'0 0.0
2017-Apr-18 09:30N 49°11' W 123°52'0 0.0
2017-Apr-18 08:54N 49°11' W 123°52'0 0.0
2017-Apr-18 08:24N 49°11' W 123°52'0 0.0
2017-Apr-18 08:00N 49°11' W 123°52'0 0.0
2017-Apr-18 07:24N 49°11' W 123°52'0 0.0
2017-Apr-18 07:00N 49°11' W 123°52'0 0.0
2017-Apr-18 06:27N 49°11' W 123°52'3 6.6
2017-Apr-18 06:01N 49°10' W 123°56'3 5.5
2017-Apr-18 05:30N 49°11' W 123°52'3 5.6
2017-Apr-18 05:01N 49°10' W 123°56'3 5.3
2017-Apr-18 04:28N 49°11' W 123°52'3 6.3
2017-Apr-18 04:00N 49°10' W 123°56'2 4.7
2017-Apr-18 03:30N 49°11' W 123°52'1 1.0
2017-Apr-18 02:54N 49°11' W 123°52'1 1.8
2017-Apr-18 02:30N 49°11' W 123°53'2 3.6
2017-Apr-18 02:00N 49°10' W 123°55'3 5.0
2017-Apr-18 01:30N 49°11' W 123°52'3 5.8
2017-Apr-18 01:00N 49°10' W 123°56'3 5.1
2017-Apr-18 00:26N 49°11' W 123°52'3 6.7
2017-Apr-18 00:00N 49°10' W 123°56'1 2.6
2017-Apr-17 23:30N 49°10' W 123°54'1 2.3
2017-Apr-17 23:00N 49°11' W 123°52'2 5.0
2017-Apr-17 22:30N 49°10' W 123°56'3 5.1
2017-Apr-17 21:56N 49°11' W 123°52'2 4.5
2017-Apr-17 21:30N 49°10' W 123°54'0 0.3
2017-Apr-17 21:01N 49°10' W 123°55'2 4.0
2017-Apr-17 20:30N 49°11' W 123°52'3 6.0
2017-Apr-17 20:00N 49°10' W 123°56'3 5.8
2017-Apr-17 19:30N 49°11' W 123°52'2 4.2
2017-Apr-17 19:00N 49°10' W 123°55'0 0.4
2017-Apr-17 18:31N 49°10' W 123°54'2 3.7
2017-Apr-17 18:00N 49°11' W 123°52'3 5.8
2017-Apr-17 17:30N 49°10' W 123°56'3 5.5
2017-Apr-17 16:59N 49°11' W 123°52'3 5.3
2017-Apr-17 16:30N 49°10' W 123°55'1 2.0
2017-Apr-17 16:00N 49°10' W 123°54'1 3.0
2017-Apr-17 15:30N 49°11' W 123°52'3 5.8
2017-Apr-17 15:00N 49°10' W 123°56'0 0.5
2017-Apr-17 14:01N 49°10' W 123°55'0 0.3
2017-Apr-17 13:30N 49°10' W 123°55'3 5.2
2017-Apr-17 13:00N 49°11' W 123°52'0 0.0
2017-Apr-17 12:28N 49°11' W 123°52'0 0.0
2017-Apr-17 11:58N 49°11' W 123°52'0 0.0
2017-Apr-17 11:22N 49°11' W 123°52'0 0.0
2017-Apr-17 10:58N 49°11' W 123°52'0 0.0
2017-Apr-17 10:16N 49°11' W 123°52'0 0.0
2017-Apr-17 09:58N 49°11' W 123°52'0 0.0
2017-Apr-17 09:28N 49°11' W 123°52'0 0.0
2017-Apr-17 07:10N 49°11' W 123°52'0 0.0
2017-Apr-17 06:52N 49°11' W 123°52'0 0.0
2017-Apr-17 06:28N 49°11' W 123°52'3 6.3
2017-Apr-17 06:00N 49°10' W 123°56'3 5.6
2017-Apr-17 05:30N 49°11' W 123°52'3 5.8
2017-Apr-17 05:00N 49°10' W 123°56'3 5.1
2017-Apr-17 04:27N 49°11' W 123°52'3 6.3
2017-Apr-17 03:59N 49°10' W 123°56'2 5.1
2017-Apr-17 03:30N 49°11' W 123°52'0 0.9
2017-Apr-17 03:01N 49°11' W 123°52'1 1.5
2017-Apr-17 02:31N 49°11' W 123°53'2 3.7
2017-Apr-17 02:01N 49°10' W 123°55'3 5.0
2017-Apr-17 01:30N 49°11' W 123°52'3 5.4
2017-Apr-17 00:59N 49°10' W 123°56'3 5.6
2017-Apr-17 00:28N 49°11' W 123°52'3 6.4
2017-Apr-17 00:00N 49°10' W 123°56'2 3.2
2017-Apr-16 23:31N 49°10' W 123°53'1 1.2
2017-Apr-16 23:00N 49°11' W 123°53'  
Track history (hours):
 
Tides and Currents Weather Stations Pressure Air Temp Water Temp Dewpoint Dewpoint Depression Visibility Wind Speed Wind Dir Waves Ship Positions

Quinsam

Last reported at 2017-Apr-26 22:48 UTC. Time now 2017-Apr-28 20:01 UTC.
Position N 49°10' W 123°56'.

Length 88 m; draft 1.5 m.

Type: Ship. MMSI: 316001266.

Date/timePositionNaut miles runAvg speedWind from/ knotsBaromVisibWave heightAir tempDewpointWater temp
2017-Apr-26 22:48N 49°10' W 123°56'0 0.0
2017-Apr-26 21:09N 49°10' W 123°56'0 0.0
2017-Apr-26 20:00N 49°10' W 123°56'0 0.0
2017-Apr-26 17:45N 49°10' W 123°56'0 0.3
2017-Apr-26 16:33N 49°10' W 123°55'0 0.1
2017-Apr-26 15:17N 49°10' W 123°55'1 0.1
2017-Apr-26 04:45N 49°10' W 123°53'0 0.4
2017-Apr-26 04:20N 49°11' W 123°53'2 2.9
2017-Apr-26 03:48N 49°10' W 123°56'0 0.0
2017-Apr-25 22:27N 49°10' W 123°56'0 0.0
2017-Apr-25 18:36N 49°10' W 123°56'0 0.1
2017-Apr-25 17:42N 49°10' W 123°56'2 1.7
2017-Apr-25 16:39N 49°11' W 123°53'211.1
2017-Apr-25 16:30N 49°10' W 123°56'2 1.7
2017-Apr-25 15:25N 49°11' W 123°53'2 2.7
2017-Apr-25 14:50N 49°10' W 123°55'3 0.1
2017-Apr-24 14:28N 49°11' W 123°52'3 2.8
2017-Apr-24 13:30N 49°10' W 123°56'3 0.6
2017-Apr-24 09:17N 49°11' W 123°52'0 0.0
2017-Apr-24 06:20N 49°11' W 123°52'3 8.4
2017-Apr-24 06:00N 49°10' W 123°56'3 4.9
2017-Apr-24 05:25N 49°11' W 123°52'3 6.9
2017-Apr-24 05:00N 49°10' W 123°56'3 4.9
2017-Apr-24 04:25N 49°11' W 123°52'3 7.0
2017-Apr-24 04:00N 49°10' W 123°56'3 5.3
2017-Apr-24 03:27N 49°11' W 123°52'0 0.0
2017-Apr-24 02:41N 49°11' W 123°52'1 3.7
2017-Apr-24 02:27N 49°11' W 123°53'2 4.4
2017-Apr-24 02:00N 49°10' W 123°56'3 5.5
2017-Apr-24 01:30N 49°11' W 123°52'3 5.3
2017-Apr-24 00:58N 49°10' W 123°56'3 5.7
2017-Apr-24 00:27N 49°11' W 123°52'3 6.3
2017-Apr-24 00:00N 49°10' W 123°56'2 3.6
2017-Apr-23 23:29N 49°11' W 123°53'0 0.3
2017-Apr-23 23:01N 49°11' W 123°53'2 3.7
2017-Apr-23 22:28N 49°10' W 123°56'3 6.0
2017-Apr-23 21:59N 49°11' W 123°52'0 0.0
2017-Apr-23 21:30N 49°11' W 123°52'0 0.0
2017-Apr-23 20:55N 49°11' W 123°52'0 0.1
2017-Apr-23 20:30N 49°11' W 123°52'3 5.5
2017-Apr-23 19:59N 49°10' W 123°56'3 5.0
2017-Apr-23 19:24N 49°11' W 123°52'3 6.7
2017-Apr-23 19:00N 49°10' W 123°56'1 2.7
2017-Apr-23 18:30N 49°10' W 123°54'1 1.3
2017-Apr-23 17:58N 49°11' W 123°53'2 4.6
2017-Apr-23 17:29N 49°10' W 123°56'3 4.2
2017-Apr-23 16:48N 49°11' W 123°52'2 7.4
2017-Apr-23 16:30N 49°10' W 123°55'1 1.4
2017-Apr-23 16:00N 49°10' W 123°54'1 2.8
2017-Apr-23 15:29N 49°11' W 123°52'3 5.9
2017-Apr-23 15:00N 49°10' W 123°56'0 0.0
2017-Apr-23 13:59N 49°10' W 123°56'1 1.5
2017-Apr-23 13:30N 49°10' W 123°55'2 4.2
2017-Apr-23 12:59N 49°11' W 123°52'0 0.0
2017-Apr-23 12:26N 49°11' W 123°52'0 0.0
2017-Apr-23 09:38N 49°11' W 123°52'0 0.0
2017-Apr-23 08:26N 49°11' W 123°52'0 0.0
2017-Apr-23 07:56N 49°11' W 123°52'0 0.0
2017-Apr-23 07:26N 49°11' W 123°52'0 0.0
2017-Apr-23 06:50N 49°11' W 123°52'0 0.0
2017-Apr-23 06:25N 49°11' W 123°52'3 7.0
2017-Apr-23 06:00N 49°10' W 123°56'3 5.1
2017-Apr-23 05:26N 49°11' W 123°52'3 6.7
2017-Apr-23 05:00N 49°10' W 123°56'3 4.8
2017-Apr-23 04:24N 49°11' W 123°52'3 7.2
2017-Apr-23 04:00N 49°10' W 123°56'3 5.5
2017-Apr-23 03:29N 49°11' W 123°52'0 0.2
2017-Apr-23 02:57N 49°11' W 123°52'0 1.0
2017-Apr-23 02:31N 49°11' W 123°52'2 4.8
2017-Apr-23 02:00N 49°10' W 123°56'3 5.5
2017-Apr-23 01:30N 49°11' W 123°52'3 5.7
2017-Apr-23 01:00N 49°10' W 123°56'3 5.4
2017-Apr-23 00:28N 49°11' W 123°52'3 6.2
2017-Apr-23 00:00N 49°10' W 123°56'2 3.5
2017-Apr-22 23:30N 49°10' W 123°53'0 0.4
2017-Apr-22 23:00N 49°11' W 123°53'2 3.6
2017-Apr-22 22:28N 49°10' W 123°56'3 4.2
2017-Apr-22 21:46N 49°11' W 123°52'0 0.0
2017-Apr-22 21:28N 49°11' W 123°52'0 0.0
2017-Apr-22 20:59N 49°11' W 123°52'1 1.2
2017-Apr-22 20:29N 49°11' W 123°53'2 4.4
2017-Apr-22 19:58N 49°10' W 123°56'3 4.1
2017-Apr-22 19:16N 49°11' W 123°52'2 8.6
2017-Apr-22 19:00N 49°10' W 123°55'1 2.1
2017-Apr-22 18:29N 49°10' W 123°53'1 2.5
2017-Apr-22 18:00N 49°11' W 123°52'3 5.6
2017-Apr-22 17:30N 49°10' W 123°56'3 5.1
2017-Apr-22 16:56N 49°11' W 123°52'3 6.7
2017-Apr-22 16:30N 49°10' W 123°56'3 5.6
2017-Apr-22 16:00N 49°11' W 123°52'1 1.7
2017-Apr-22 15:30N 49°11' W 123°53'2 3.9
2017-Apr-22 15:00N 49°10' W 123°56'3 4.4
2017-Apr-22 14:20N 49°11' W 123°52'3 3.1
2017-Apr-22 13:30N 49°10' W 123°55'3 1.8
2017-Apr-22 12:01N 49°11' W 123°52'0 0.0
2017-Apr-22 10:25N 49°11' W 123°52'0 0.0
2017-Apr-22 08:25N 49°11' W 123°52'0 0.0
2017-Apr-22 07:49N 49°11' W 123°52'0 0.0
2017-Apr-22 07:22N 49°11' W 123°52'0 0.0
2017-Apr-22 06:58N 49°11' W 123°52'0 0.0
2017-Apr-22 06:28N 49°11' W 123°52'3 6.2
2017-Apr-22 06:00N 49°10' W 123°56'3 5.5
2017-Apr-22 05:28N 49°11' W 123°52'3 5.8
2017-Apr-22 04:58N 49°10' W 123°56'3 3.8
2017-Apr-22 04:18N 49°11' W 123°52'3 8.2
2017-Apr-22 03:59N 49°10' W 123°56'2 5.0
2017-Apr-22 03:30N 49°11' W 123°52'1 0.9
2017-Apr-22 02:57N 49°11' W 123°52'2 3.4
2017-Apr-22 02:30N 49°10' W 123°54'0 0.2
2017-Apr-22 01:59N 49°10' W 123°54'1 1.3
2017-Apr-22 01:29N 49°11' W 123°53'2 4.3
2017-Apr-22 01:00N 49°10' W 123°56'3 4.8
2017-Apr-22 00:24N 49°11' W 123°52'3 7.2
2017-Apr-22 00:00N 49°10' W 123°56'2 3.5
2017-Apr-21 23:30N 49°10' W 123°53'1 1.5
2017-Apr-21 23:00N 49°11' W 123°52'2 4.3
2017-Apr-21 22:25N 49°10' W 123°56'3 6.5
2017-Apr-21 21:58N 49°11' W 123°52'2 4.6
2017-Apr-21 21:30N 49°10' W 123°55'0 0.9
2017-Apr-21 20:59N 49°10' W 123°54'2 3.5
2017-Apr-21 20:30N 49°11' W 123°52'3 4.8
2017-Apr-21 19:54N 49°10' W 123°56'3 4.5
2017-Apr-21 19:16N 49°11' W 123°52'2 8.8
2017-Apr-21 19:00N 49°10' W 123°55'0 0.7
2017-Apr-21 18:30N 49°10' W 123°54'2 3.8
2017-Apr-21 18:00N 49°11' W 123°52'3 5.8
2017-Apr-21 17:30N 49°10' W 123°56'3 4.0
2017-Apr-21 16:46N 49°11' W 123°52'2 9.0
2017-Apr-21 16:30N 49°10' W 123°55'1 1.7
2017-Apr-21 16:00N 49°10' W 123°54'1 2.4
2017-Apr-21 15:28N 49°11' W 123°52'3 5.3
2017-Apr-21 14:59N 49°10' W 123°56'3 3.6
2017-Apr-21 14:13N 49°11' W 123°52'2 2.5
2017-Apr-21 13:30N 49°10' W 123°54'2 0.3
2017-Apr-21 06:25N 49°11' W 123°52'3 6.8
2017-Apr-21 06:00N 49°10' W 123°56'3 5.5
2017-Apr-21 05:30N 49°11' W 123°52'3 5.3
2017-Apr-21 05:00N 49°10' W 123°56'3 5.8
2017-Apr-21 04:31N 49°11' W 123°52'3 5.7
2017-Apr-21 04:00N 49°10' W 123°56'3 5.1
2017-Apr-21 03:30N 49°11' W 123°52'0 0.7
2017-Apr-21 02:59N 49°11' W 123°52'3 6.0
2017-Apr-21 02:30N 49°10' W 123°56'3 4.5
2017-Apr-21 01:51N 49°11' W 123°52'3 8.3
2017-Apr-21 01:30N 49°10' W 123°56'3 5.2
2017-Apr-21 01:00N 49°11' W 123°52'2 4.3
2017-Apr-21 00:30N 49°10' W 123°55'1 1.0
2017-Apr-20 23:59N 49°10' W 123°54'1 2.0
2017-Apr-20 23:26N 49°11' W 123°53'2 4.9
2017-Apr-20 23:00N 49°10' W 123°56'3 4.3
2017-Apr-20 22:20N 49°11' W 123°52'2 6.9
2017-Apr-20 22:00N 49°10' W 123°55'0 0.2
2017-Apr-20 21:29N 49°10' W 123°55'2 4.2
2017-Apr-20 20:56N 49°11' W 123°52'3 6.9
2017-Apr-20 20:30N 49°10' W 123°56'2 3.6
2017-Apr-20 20:00N 49°10' W 123°53'0 0.7
2017-Apr-20 19:30N 49°11' W 123°53'2 4.3
2017-Apr-20 19:00N 49°10' W 123°56'3 5.5
2017-Apr-20 18:29N 49°11' W 123°52'2 4.3
2017-Apr-20 18:00N 49°10' W 123°55'1 1.0
2017-Apr-20 17:30N 49°10' W 123°55'3 4.9
2017-Apr-20 16:59N 49°11' W 123°52'3 5.7
2017-Apr-20 16:29N 49°10' W 123°56'3 5.5
2017-Apr-20 16:00N 49°11' W 123°52'1 2.2
2017-Apr-20 15:29N 49°10' W 123°54'2 3.1
2017-Apr-20 15:00N 49°10' W 123°56'3 4.3
2017-Apr-20 14:19N 49°11' W 123°52'2 2.1
2017-Apr-20 13:30N 49°10' W 123°54'2 2.9
2017-Apr-20 12:55N 49°11' W 123°52'0 0.0
2017-Apr-20 06:16N 49°11' W 123°52'310.4
2017-Apr-20 06:00N 49°10' W 123°56'0 0.2
2017-Apr-20 05:30N 49°10' W 123°56'0 0.0
2017-Apr-20 05:00N 49°10' W 123°56'3 5.3
2017-Apr-20 04:27N 49°11' W 123°52'3 6.5
2017-Apr-20 04:00N 49°10' W 123°56'2 4.2
2017-Apr-20 03:30N 49°11' W 123°53'1 1.3
2017-Apr-20 02:54N 49°11' W 123°52'1 1.3
2017-Apr-20 02:29N 49°11' W 123°52'2 5.0
2017-Apr-20 02:00N 49°10' W 123°56'3 5.8
2017-Apr-20 01:30N 49°11' W 123°52'3 5.8
2017-Apr-20 01:00N 49°10' W 123°56'3 4.7
2017-Apr-20 00:23N 49°11' W 123°52'3 7.3
2017-Apr-19 23:59N 49°10' W 123°56'2 3.9
2017-Apr-19 23:30N 49°11' W 123°53'0 0.8
2017-Apr-19 23:00N 49°11' W 123°53'2 4.6
2017-Apr-19 22:30N 49°10' W 123°56'3 5.3
2017-Apr-19 21:57N 49°11' W 123°52'3 5.5
2017-Apr-19 21:30N 49°10' W 123°55'1 2.2
2017-Apr-19 21:00N 49°10' W 123°54'0 0.5
2017-Apr-19 20:30N 49°11' W 123°53'2 3.3
2017-Apr-19 20:00N 49°10' W 123°56'3 4.9
2017-Apr-19 19:25N 49°11' W 123°52'3 7.0
2017-Apr-19 19:00N 49°10' W 123°56'1 2.6
2017-Apr-19 18:30N 49°10' W 123°54'2 3.1
2017-Apr-19 18:00N 49°11' W 123°52'3 5.6
2017-Apr-19 17:29N 49°10' W 123°56'3 5.8
2017-Apr-19 16:59N 49°11' W 123°52'3 5.6
2017-Apr-19 16:30N 49°10' W 123°56'1 2.9
2017-Apr-19 16:00N 49°10' W 123°53'1 1.8
2017-Apr-19 15:29N 49°11' W 123°52'3 5.4
2017-Apr-19 15:00N 49°10' W 123°56'3 5.8
2017-Apr-19 14:30N 49°11' W 123°52'2 1.8
2017-Apr-19 13:30N 49°10' W 123°54'2 3.6
2017-Apr-19 13:00N 49°11' W 123°52'0 0.0
2017-Apr-19 06:26N 49°11' W 123°52'3 6.6
2017-Apr-19 06:00N 49°10' W 123°56'3 5.5
2017-Apr-19 05:30N 49°11' W 123°52'3 5.6
2017-Apr-19 05:00N 49°10' W 123°56'3 5.6
2017-Apr-19 04:30N 49°11' W 123°52'3 5.5
2017-Apr-19 04:00N 49°10' W 123°56'2 4.3
2017-Apr-19 03:30N 49°11' W 123°53'1 1.5
2017-Apr-19 03:00N 49°11' W 123°52'1 1.5
2017-Apr-19 02:30N 49°11' W 123°53'2 4.0
2017-Apr-19 02:00N 49°10' W 123°56'3 5.3
2017-Apr-19 01:30N 49°11' W 123°52'3 5.6
2017-Apr-19 01:00N 49°10' W 123°56'3 4.7
2017-Apr-19 00:23N 49°11' W 123°52'3 7.6
2017-Apr-19 00:01N 49°10' W 123°56'2 3.1
2017-Apr-18 23:30N 49°10' W 123°54'1 1.2
2017-Apr-18 23:00N 49°11' W 123°53'2 4.4
2017-Apr-18 22:30N 49°10' W 123°56'3 4.9
2017-Apr-18 21:55N 49°11' W 123°52'3 7.0
2017-Apr-18 21:30N 49°10' W 123°56'3 5.6
2017-Apr-18 21:00N 49°11' W 123°52'1 2.0
2017-Apr-18 20:30N 49°11' W 123°53'2 3.6
2017-Apr-18 20:01N 49°10' W 123°56'3 5.7
2017-Apr-18 19:30N 49°11' W 123°52'3 5.7
2017-Apr-18 19:00N 49°10' W 123°56'2 4.1
2017-Apr-18 18:30N 49°11' W 123°53'0 0.4
2017-Apr-18 18:00N 49°11' W 123°53'2 4.5
2017-Apr-18 17:30N 49°10' W 123°56'3 5.1
2017-Apr-18 16:56N 49°11' W 123°52'3 6.7
2017-Apr-18 16:30N 49°10' W 123°56'1 2.9
2017-Apr-18 16:00N 49°10' W 123°54'1 2.6
2017-Apr-18 15:29N 49°11' W 123°52'3 5.8
2017-Apr-18 15:00N 49°10' W 123°56'3 5.6
2017-Apr-18 14:29N 49°11' W 123°52'2 1.9
2017-Apr-18 13:30N 49°10' W 123°54'2 3.7
2017-Apr-18 13:00N 49°11' W 123°52'0 0.0
2017-Apr-18 12:18N 49°11' W 123°52'0 0.0
2017-Apr-18 11:54N 49°11' W 123°52'0 0.0
2017-Apr-18 11:24N 49°11' W 123°52'0 0.0
2017-Apr-18 10:54N 49°11' W 123°52'0 0.0
2017-Apr-18 10:30N 49°11' W 123°52'0 0.0
2017-Apr-18 09:54N 49°11' W 123°52'0 0.0
2017-Apr-18 09:30N 49°11' W 123°52'0 0.0
2017-Apr-18 08:54N 49°11' W 123°52'0 0.0
2017-Apr-18 08:24N 49°11' W 123°52'0 0.0
2017-Apr-18 08:00N 49°11' W 123°52'0 0.0
2017-Apr-18 07:24N 49°11' W 123°52'0 0.0
2017-Apr-18 07:00N 49°11' W 123°52'0 0.0
2017-Apr-18 06:27N 49°11' W 123°52'3 6.6
2017-Apr-18 06:01N 49°10' W 123°56'3 5.5
2017-Apr-18 05:30N 49°11' W 123°52'3 5.6
2017-Apr-18 05:01N 49°10' W 123°56'3 5.3
2017-Apr-18 04:28N 49°11' W 123°52'3 6.3
2017-Apr-18 04:00N 49°10' W 123°56'2 4.7
2017-Apr-18 03:30N 49°11' W 123°52'1 1.0
2017-Apr-18 02:54N 49°11' W 123°52'1 1.8
2017-Apr-18 02:30N 49°11' W 123°53'2 3.6
2017-Apr-18 02:00N 49°10' W 123°55'3 5.0
2017-Apr-18 01:30N 49°11' W 123°52'3 5.8
2017-Apr-18 01:00N 49°10' W 123°56'3 5.1
2017-Apr-18 00:26N 49°11' W 123°52'3 6.7
2017-Apr-18 00:00N 49°10' W 123°56'1 2.6
2017-Apr-17 23:30N 49°10' W 123°54'1 2.3
2017-Apr-17 23:00N 49°11' W 123°52'2 5.0
2017-Apr-17 22:30N 49°10' W 123°56'3 5.1
2017-Apr-17 21:56N 49°11' W 123°52'2 4.5
2017-Apr-17 21:30N 49°10' W 123°54'0 0.3
2017-Apr-17 21:01N 49°10' W 123°55'2 4.0
2017-Apr-17 20:30N 49°11' W 123°52'3 6.0
2017-Apr-17 20:00N 49°10' W 123°56'3 5.8
2017-Apr-17 19:30N 49°11' W 123°52'2 4.2
2017-Apr-17 19:00N 49°10' W 123°55'0 0.4
2017-Apr-17 18:31N 49°10' W 123°54'2 3.7
2017-Apr-17 18:00N 49°11' W 123°52'3 5.8
2017-Apr-17 17:30N 49°10' W 123°56'3 5.5
2017-Apr-17 16:59N 49°11' W 123°52'3 5.3
2017-Apr-17 16:30N 49°10' W 123°55'1 2.0
2017-Apr-17 16:00N 49°10' W 123°54'1 3.0
2017-Apr-17 15:30N 49°11' W 123°52'3 5.8
2017-Apr-17 15:00N 49°10' W 123°56'0 0.5
2017-Apr-17 14:01N 49°10' W 123°55'0 0.3
2017-Apr-17 13:30N 49°10' W 123°55'3 5.2
2017-Apr-17 13:00N 49°11' W 123°52'0 0.0
2017-Apr-17 12:28N 49°11' W 123°52'0 0.0
2017-Apr-17 11:58N 49°11' W 123°52'0 0.0
2017-Apr-17 11:22N 49°11' W 123°52'0 0.0
2017-Apr-17 10:58N 49°11' W 123°52'0 0.0
2017-Apr-17 10:16N 49°11' W 123°52'0 0.0
2017-Apr-17 09:58N 49°11' W 123°52'0 0.0
2017-Apr-17 09:28N 49°11' W 123°52'0 0.0
2017-Apr-17 07:10N 49°11' W 123°52'0 0.0
2017-Apr-17 06:52N 49°11' W 123°52'0 0.0
2017-Apr-17 06:28N 49°11' W 123°52'3 6.3
2017-Apr-17 06:00N 49°10' W 123°56'3 5.6
2017-Apr-17 05:30N 49°11' W 123°52'3 5.8
2017-Apr-17 05:00N 49°10' W 123°56'3 5.1
2017-Apr-17 04:27N 49°11' W 123°52'3 6.3
2017-Apr-17 03:59N 49°10' W 123°56'2 5.1
2017-Apr-17 03:30N 49°11' W 123°52'0 0.9
2017-Apr-17 03:01N 49°11' W 123°52'1 1.5
2017-Apr-17 02:31N 49°11' W 123°53'2 3.7
2017-Apr-17 02:01N 49°10' W 123°55'3 5.0
2017-Apr-17 01:30N 49°11' W 123°52'3 5.4
2017-Apr-17 00:59N 49°10' W 123°56'3 5.6
2017-Apr-17 00:28N 49°11' W 123°52'3 6.4
2017-Apr-17 00:00N 49°10' W 123°56'2 3.2
2017-Apr-16 23:31N 49°10' W 123°53'1 1.2
2017-Apr-16 23:00N 49°11' W 123°53'  

Dump ship's entire track history